Time;durP1;ratioP1;P1;durP2;ratioP2;P2;SDS_P1;SDS_P2;PMS_P1;PMS_P2;Temp;Humidity;BMP_temperature;BMP_pressure;BME280_temperature;BME280_humidity;BME280_pressure;Samples;Min_cycle;Max_cycle;Signal;HPM_P1;HPM_P2
2021/09/30 00:01:07;;;;;;;3.47;0.60;;;;;;;8.22;100.00;96881.78;5051025;28;20783;-77
2021/09/30 00:03:33;;;;;;;2.35;0.80;;;;;;;8.34;98.25;96877.06;5052405;28;24434;-77
2021/09/30 00:06:01;;;;;;;4.18;1.13;;;;;;;7.91;100.00;96878.59;5052448;28;24459;-77
2021/09/30 00:08:28;;;;;;;2.20;0.95;;;;;;;7.92;100.00;96878.53;5052851;28;24434;-77
2021/09/30 00:10:59;;;;;;;1.92;0.80;;;;;;;7.82;100.00;96895.22;5052666;28;24793;-77
2021/09/30 00:13:43;;;;;;;2.45;1.02;;;;;;;7.97;100.00;96891.28;5052718;28;20710;-77
2021/09/30 00:16:31;;;;;;;2.25;0.85;;;;;;;7.84;100.00;96893.44;5052152;28;20913;-77
2021/09/30 00:32:49;;;;;;;3.00;0.80;;;;;;;7.66;100.00;96896.63;5054626;28;20681;-77
2021/09/30 00:35:26;;;;;;;1.80;0.75;;;;;;;7.83;100.00;96891.75;5054543;28;20724;-79
2021/09/30 00:40:53;;;;;;;1.60;0.85;;;;;;;7.55;100.00;96897.00;5052344;28;20586;-77
2021/09/30 00:46:03;;;;;;;1.73;0.75;;;;;;;7.30;100.00;96906.41;5028937;28;20763;-77
2021/09/30 00:48:53;;;;;;;4.30;0.95;;;;;;;7.40;100.00;96905.22;5051468;28;20759;-77
2021/09/30 00:51:26;;;;;;;1.67;0.80;;;;;;;7.42;100.00;96906.03;5052396;28;20774;-77
2021/09/30 01:52:01;;;;;;;1.92;0.90;;;;;;;7.56;100.00;96941.66;5051096;28;20783;-77
2021/09/30 01:57:40;;;;;;;2.20;0.88;;;;;;;7.62;100.00;96939.72;5050783;28;24453;-77
2021/09/30 02:21:09;;;;;;;5.18;0.80;;;;;;;7.00;100.00;96934.78;5044197;28;24438;-77
2021/09/30 02:29:34;;;;;;;1.60;0.50;;;;;;;7.00;100.00;96938.19;5016594;28;24438;-79
2021/09/30 02:59:49;;;;;;;1.63;0.85;;;;;;;6.40;100.00;96936.50;5050274;28;24977;-77
2021/09/30 03:02:17;;;;;;;1.95;0.70;;;;;;;6.43;100.00;96938.16;5051914;28;24419;-79
2021/09/30 03:04:45;;;;;;;3.35;1.08;;;;;;;6.31;100.00;96936.78;5050860;28;25011;-77
2021/09/30 03:07:13;;;;;;;1.88;0.90;;;;;;;6.34;100.00;96931.56;5050437;28;25173;-78
2021/09/30 03:09:42;;;;;;;1.55;0.60;;;;;;;6.55;98.38;96928.38;5052228;28;24431;-78
2021/09/30 03:12:18;;;;;;;2.90;0.50;;;;;;;6.51;95.65;96931.06;5054064;28;24426;-78
2021/09/30 03:14:57;;;;;;;2.30;0.50;;;;;;;6.30;95.60;96928.22;5055779;28;24427;-78
2021/09/30 03:17:31;;;;;;;1.00;0.47;;;;;;;6.17;98.09;96933.75;5055940;28;24493;-78
2021/09/30 03:20:03;;;;;;;0.88;0.45;;;;;;;6.21;98.80;96936.19;5055883;28;24463;-78
2021/09/30 03:22:32;;;;;;;1.00;0.55;;;;;;;6.23;98.66;96941.25;5056137;28;24639;-78
2021/09/30 03:24:59;;;;;;;1.30;0.60;;;;;;;6.21;100.00;96940.47;5055646;28;24480;-78
2021/09/30 03:27:27;;;;;;;2.78;0.80;;;;;;;6.22;100.00;96942.16;5055645;28;24455;-78
2021/09/30 03:29:53;;;;;;;1.88;1.10;;;;;;;6.10;100.00;96948.47;5055819;28;24469;-78
2021/09/30 03:32:20;;;;;;;2.33;1.10;;;;;;;6.05;100.00;96950.34;5056170;28;24436;-78
2021/09/30 03:34:47;;;;;;;1.75;1.08;;;;;;;6.13;100.00;96947.56;5055367;28;24477;-78
2021/09/30 03:37:14;;;;;;;2.22;0.90;;;;;;;6.03;100.00;96952.09;5055988;28;24434;-79
2021/09/30 03:39:42;;;;;;;2.67;0.90;;;;;;;6.01;100.00;96952.16;5055225;28;24431;-77
2021/09/30 03:42:08;;;;;;;3.15;1.17;;;;;;;6.05;100.00;96950.34;5054445;28;24431;-78
2021/09/30 03:44:35;;;;;;;2.35;1.10;;;;;;;6.07;100.00;96951.97;5055001;28;24990;-79
2021/09/30 03:47:01;;;;;;;2.30;0.70;;;;;;;6.24;100.00;96948.97;5055406;28;24513;-79
2021/09/30 03:49:30;;;;;;;2.10;0.67;;;;;;;6.37;98.12;96952.03;5054698;28;24792;-78
2021/09/30 03:52:03;;;;;;;5.10;0.70;;;;;;;6.24;96.94;96960.97;5055078;28;24442;-78
2021/09/30 03:54:37;;;;;;;1.35;0.55;;;;;;;6.02;99.81;96953.81;5054609;28;24423;-78
2021/09/30 03:57:09;;;;;;;2.10;0.70;;;;;;;5.98;100.00;96957.38;5054736;28;24797;-77
2021/09/30 03:59:35;;;;;;;2.38;0.73;;;;;;;6.05;100.00;96960.63;5054975;28;24488;-78
2021/09/30 04:02:02;;;;;;;1.90;0.65;;;;;;;6.17;100.00;96957.72;5054493;28;24967;-79
2021/09/30 04:04:31;;;;;;;0.80;0.50;;;;;;;6.24;96.35;96956.69;5054919;28;24493;-78
2021/09/30 04:07:01;;;;;;;0.88;0.40;;;;;;;6.09;96.68;96959.66;5054545;28;24482;-77
2021/09/30 04:09:28;;;;;;;1.08;0.50;;;;;;;5.95;98.22;96965.16;5054706;28;24445;-79
2021/09/30 04:11:56;;;;;;;1.52;0.50;;;;;;;5.90;98.91;96959.25;5055073;28;24427;-78
2021/09/30 04:14:24;;;;;;;1.85;0.77;;;;;;;5.95;98.63;96959.16;5054683;28;24419;-79
2021/09/30 04:16:51;;;;;;;1.70;0.60;;;;;;;5.96;98.34;96951.41;5054581;28;24851;-78
2021/09/30 04:19:19;;;;;;;3.92;0.70;;;;;;;5.96;97.44;96956.53;5054495;28;24564;-78
2021/09/30 04:21:46;;;;;;;1.00;0.50;;;;;;;5.94;97.73;96966.03;5054977;28;24477;-79
2021/09/30 04:24:13;;;;;;;1.50;0.60;;;;;;;5.93;98.54;96963.50;5054761;28;24477;-78
2021/09/30 04:26:39;;;;;;;2.20;0.57;;;;;;;5.98;98.50;96965.06;5055133;28;24852;-79
2021/09/30 04:29:06;;;;;;;3.10;0.98;;;;;;;6.06;98.92;96970.03;5055388;28;25157;-79
2021/09/30 04:31:34;;;;;;;1.20;0.70;;;;;;;6.06;99.70;96970.84;5053906;28;24430;-77
2021/09/30 04:34:01;;;;;;;1.10;0.50;;;;;;;6.09;99.72;96967.38;5052603;28;24438;-77
2021/09/30 04:36:28;;;;;;;1.70;0.88;;;;;;;6.21;98.33;96961.06;5052281;28;24435;-77
2021/09/30 04:38:55;;;;;;;2.47;0.90;;;;;;;6.08;97.66;96957.94;5052599;28;24419;-77
2021/09/30 04:41:22;;;;;;;1.17;0.60;;;;;;;5.92;96.76;96959.22;5052155;28;25004;-77
2021/09/30 04:43:49;;;;;;;5.63;0.80;;;;;;;5.82;93.78;96966.28;5052847;28;25255;-78
2021/09/30 04:46:17;;;;;;;0.52;0.50;;;;;;;5.78;95.36;96968.13;5052481;28;24463;-77
2021/09/30 04:48:45;;;;;;;1.58;0.60;;;;;;;5.74;93.01;96971.63;5052395;28;24889;-77
2021/09/30 04:51:11;;;;;;;2.30;1.10;;;;;;;5.66;92.93;96976.13;5052360;28;24968;-79
2021/09/30 04:53:38;;;;;;;1.65;1.20;;;;;;;5.55;94.36;96981.50;5052775;28;24512;-78
2021/09/30 04:56:05;;;;;;;2.78;1.80;;;;;;;5.51;94.27;96974.75;5053130;28;25012;-79
2021/09/30 04:58:31;;;;;;;3.63;2.30;;;;;;;5.42;94.39;96971.56;5054096;28;24431;-78
2021/09/30 05:00:58;;;;;;;5.90;2.15;;;;;;;5.31;97.38;96982.09;5053412;28;24427;-79
2021/09/30 05:03:24;;;;;;;5.13;1.80;;;;;;;5.27;98.44;96983.03;5054138;28;24840;-79
2021/09/30 05:05:52;;;;;;;4.25;2.08;;;;;;;5.28;99.08;96982.16;5053555;28;24427;-78
2021/09/30 05:08:19;;;;;;;4.65;1.70;;;;;;;5.27;99.68;96980.47;5052204;28;24439;-77
2021/09/30 05:10:47;;;;;;;2.78;1.50;;;;;;;5.33;100.00;96985.44;5052180;28;24426;-77
2021/09/30 05:13:17;;;;;;;5.20;1.73;;;;;;;5.25;98.54;96987.34;5051898;28;24441;-77
2021/09/30 05:15:43;;;;;;;12.57;7.78;;;;;;;5.15;100.00;96986.69;5051322;28;25022;-77
2021/09/30 05:18:11;;;;;;;6.40;2.70;;;;;;;5.00;100.00;96997.31;5051713;28;24432;-77
2021/09/30 05:20:37;;;;;;;8.82;2.22;;;;;;;5.06;100.00;96989.47;5053210;28;24489;-79
2021/09/30 05:23:05;;;;;;;3.88;1.65;;;;;;;5.21;100.00;96991.72;5053091;28;24469;-79
2021/09/30 05:25:31;;;;;;;3.55;2.00;;;;;;;5.31;100.00;96992.38;5053178;28;24439;-79
2021/09/30 05:27:58;;;;;;;2.55;1.42;;;;;;;5.41;100.00;96996.41;5052033;28;24455;-77
2021/09/30 05:30:24;;;;;;;2.92;1.20;;;;;;;5.38;100.00;97001.63;5051524;28;24477;-77
2021/09/30 05:32:51;;;;;;;1.70;1.30;;;;;;;5.49;100.00;97003.97;5051830;28;24423;-77
2021/09/30 05:35:18;;;;;;;2.95;1.25;;;;;;;5.57;100.00;97000.31;5050608;28;24940;-77
2021/09/30 05:37:44;;;;;;;1.58;0.90;;;;;;;5.53;100.00;96998.72;5051452;28;24423;-77
2021/09/30 05:40:15;;;;;;;4.13;0.90;;;;;;;5.57;100.00;97000.31;5051080;28;24944;-77
2021/09/30 05:42:42;;;;;;;22.08;1.05;;;;;;;5.42;100.00;97010.13;5051298;28;24412;-77
2021/09/30 05:45:11;;;;;;;0.63;0.50;;;;;;;5.36;100.00;97003.38;5050742;28;24948;-77
2021/09/30 05:47:37;;;;;;;1.27;0.70;;;;;;;5.38;100.00;97004.19;5050848;28;24529;-77
2021/09/30 05:50:05;;;;;;;1.52;0.80;;;;;;;5.25;100.00;96998.47;5050960;28;24940;-77
2021/09/30 05:52:32;;;;;;;2.30;0.95;;;;;;;5.36;100.00;96999.97;5051208;28;24423;-77
2021/09/30 05:54:58;;;;;;;1.45;0.93;;;;;;;5.42;100.00;96992.13;5050885;28;24481;-77
2021/09/30 05:57:26;;;;;;;7.10;0.93;;;;;;;5.45;100.00;96992.91;5049641;22;24531;-77
2021/09/30 05:59:52;;;;;;;3.53;0.98;;;;;;;5.37;100.00;96999.06;4992236;28;24444;-77
2021/09/30 06:10:37;;;;;;;2.07;0.90;;;;;;;5.53;100.00;97008.16;4991405;28;24444;-77
2021/09/30 06:13:08;;;;;;;3.70;0.93;;;;;;;5.70;100.00;96998.28;4990630;28;24441;-77
2021/09/30 06:15:38;;;;;;;1.25;0.75;;;;;;;5.69;100.00;97003.47;4983088;28;24444;-77
2021/09/30 06:18:07;;;;;;;2.67;0.93;;;;;;;5.43;100.00;97015.19;4990865;28;24568;-77
2021/09/30 06:20:34;;;;;;;2.67;1.40;;;;;;;5.48;100.00;97009.94;4990966;28;24417;-77
2021/09/30 06:23:00;;;;;;;1.98;0.95;;;;;;;5.64;100.00;97011.31;4990773;28;24985;-77
2021/09/30 06:25:26;;;;;;;2.00;0.77;;;;;;;5.60;100.00;97012.25;4990739;28;24487;-77
2021/09/30 06:27:53;;;;;;;2.50;0.90;;;;;;;5.55;100.00;97017.47;4990830;28;24847;-77
2021/09/30 06:30:21;;;;;;;2.35;0.90;;;;;;;5.72;100.00;97019.69;4990871;28;24420;-77
2021/09/30 06:32:49;;;;;;;2.22;0.90;;;;;;;5.83;100.00;97017.69;4990748;28;24516;-77
2021/09/30 06:35:16;;;;;;;4.75;1.23;;;;;;;6.03;100.00;97013.81;4990455;28;24421;-77
2021/09/30 06:37:42;;;;;;;2.75;1.05;;;;;;;6.39;100.00;97019.75;4990943;28;24895;-77
2021/09/30 06:40:10;;;;;;;2.72;1.00;;;;;;;6.42;100.00;97024.81;4990987;28;24429;-77
2021/09/30 06:42:37;;;;;;;2.22;0.90;;;;;;;6.35;100.00;97023.28;4990824;28;24431;-77
2021/09/30 06:45:05;;;;;;;2.72;0.93;;;;;;;6.39;100.00;97021.50;4990537;28;24479;-76
2021/09/30 06:47:36;;;;;;;3.95;1.00;;;;;;;6.59;100.00;97023.53;4992909;28;24448;-76
2021/09/30 06:50:05;;;;;;;1.73;0.75;;;;;;;6.61;100.00;97030.31;4994415;28;24433;-76
2021/09/30 06:52:32;;;;;;;2.28;0.77;;;;;;;6.57;100.00;97030.47;4994811;28;24444;-76
2021/09/30 06:54:58;;;;;;;2.00;0.70;;;;;;;6.65;100.00;97031.94;4994777;28;24448;-76
2021/09/30 06:57:27;;;;;;;3.28;0.90;;;;;;;6.59;100.00;97029.50;4994679;28;24847;-76
2021/09/30 06:59:54;;;;;;;2.67;1.17;;;;;;;6.63;100.00;97041.41;4998171;28;24986;-76
2021/09/30 07:02:22;;;;;;;2.50;0.90;;;;;;;6.64;100.00;97034.56;4994188;28;24593;-76
2021/09/30 07:04:50;;;;;;;2.92;1.23;;;;;;;6.89;100.00;97038.13;4999428;28;24441;-75
2021/09/30 07:07:17;;;;;;;2.78;1.30;;;;;;;7.48;100.00;97039.84;4994381;28;24471;-75
2021/09/30 07:09:45;;;;;;;5.18;1.60;;;;;;;7.75;100.00;97045.91;4998259;28;24433;-77
2021/09/30 07:12:12;;;;;;;4.68;1.38;;;;;;;7.97;100.00;97040.91;4997909;28;24533;-77
2021/09/30 07:14:39;;;;;;;6.20;2.25;;;;;;;7.79;100.00;97047.50;4997412;28;24998;-77
2021/09/30 07:17:06;;;;;;;5.43;1.60;;;;;;;7.93;100.00;97044.47;4997636;28;24437;-77
2021/09/30 07:19:33;;;;;;;4.27;1.50;;;;;;;8.36;100.00;97043.91;4997005;28;24429;-77
2021/09/30 07:22:01;;;;;;;7.10;1.93;;;;;;;8.74;100.00;97044.38;4996595;28;25053;-77
2021/09/30 07:24:28;;;;;;;8.75;2.60;;;;;;;9.19;98.72;97049.59;4996484;28;20780;-78
2021/09/30 07:26:54;;;;;;;2.60;1.52;;;;;;;9.23;96.82;97047.75;4995680;28;24452;-78
2021/09/30 07:29:20;;;;;;;4.88;1.77;;;;;;;9.43;91.55;97050.44;4996052;28;24965;-76
2021/09/30 07:31:47;;;;;;;12.00;2.60;;;;;;;9.57;94.20;97049.09;4997992;28;24779;-77
2021/09/30 07:34:14;;;;;;;6.30;2.00;;;;;;;9.52;93.96;97051.00;4998764;28;24424;-79
2021/09/30 07:36:40;;;;;;;11.05;2.50;;;;;;;9.59;92.91;97044.69;4994358;28;24425;-78
2021/09/30 07:39:09;;;;;;;3.10;1.65;;;;;;;9.90;93.28;97050.38;4997800;28;24806;-79
2021/09/30 07:41:35;;;;;;;6.05;1.98;;;;;;;10.28;92.09;97052.34;4998001;28;24428;-80
2021/09/30 07:44:03;;;;;;;3.55;1.38;;;;;;;10.59;90.48;97055.31;4998148;28;24432;-79
2021/09/30 07:46:30;;;;;;;4.63;1.77;;;;;;;10.85;88.75;97059.38;4997283;28;20780;-79
2021/09/30 07:48:57;;;;;;;6.68;1.75;;;;;;;10.59;85.82;97059.66;4997635;28;20772;-79
2021/09/30 07:51:23;;;;;;;4.82;1.52;;;;;;;10.04;87.88;97056.72;4997892;28;24425;-79
2021/09/30 07:53:50;;;;;;;2.83;1.40;;;;;;;10.37;87.94;97047.59;4996580;28;24428;-72
2021/09/30 07:56:17;;;;;;;2.35;1.23;;;;;;;10.32;88.18;97052.16;4993152;28;24436;-80
2021/09/30 07:58:44;;;;;;;3.40;1.23;;;;;;;10.72;87.32;97049.63;4994311;28;24436;-80
2021/09/30 08:01:10;;;;;;;4.18;1.35;;;;;;;10.69;88.18;97054.94;4996739;28;24436;-80
2021/09/30 08:03:37;;;;;;;5.18;1.48;;;;;;;10.53;87.31;97053.00;4996831;28;24417;-80
2021/09/30 08:06:04;;;;;;;6.05;1.85;;;;;;;11.00;88.87;97046.69;4996338;28;24435;-80
2021/09/30 08:08:30;;;;;;;4.22;1.45;;;;;;;10.98;85.37;97044.16;4996421;28;24476;-80
2021/09/30 08:10:58;;;;;;;6.45;1.90;;;;;;;10.85;87.80;97043.84;4996199;28;24528;-80
2021/09/30 08:13:25;;;;;;;6.15;2.28;;;;;;;10.99;86.23;97045.84;4996743;28;24448;-80
2021/09/30 08:15:52;;;;;;;14.60;2.25;;;;;;;10.99;85.33;97042.41;4995468;28;24488;-79
2021/09/30 08:18:18;;;;;;;6.07;1.90;;;;;;;10.69;85.42;97047.19;4995721;28;24436;-78
2021/09/30 08:20:45;;;;;;;4.68;2.10;;;;;;;10.68;86.25;97051.53;4996778;28;24429;-78
2021/09/30 08:23:12;;;;;;;3.80;1.20;;;;;;;10.80;85.81;97045.81;4996716;28;24467;-79
2021/09/30 08:25:39;;;;;;;2.05;1.10;;;;;;;10.63;85.82;97056.03;5002250;28;24440;-77
2021/09/30 08:28:06;;;;;;;3.67;1.20;;;;;;;10.33;87.52;97053.81;5007765;28;24452;-78
2021/09/30 08:30:35;;;;;;;3.33;1.25;;;;;;;10.49;86.80;97042.81;5001807;28;24428;-80
2021/09/30 08:33:03;;;;;;;3.80;1.50;;;;;;;10.71;88.36;97041.00;5000548;28;24943;-79
2021/09/30 08:35:29;;;;;;;3.78;1.40;;;;;;;10.53;84.96;97044.38;5000438;28;24421;-79
2021/09/30 08:37:56;;;;;;;4.45;1.42;;;;;;;10.44;85.89;97039.59;4997372;28;24425;-79
2021/09/30 08:40:22;;;;;;;6.22;1.58;;;;;;;10.88;88.44;97041.13;5001714;28;24417;-79
2021/09/30 08:42:49;;;;;;;7.45;2.70;;;;;;;10.61;81.05;97034.56;4999773;28;24428;-79
2021/09/30 08:45:20;;;;;;;4.63;2.20;;;;;;;11.01;82.30;97033.66;5001116;28;24428;-79
2021/09/30 08:47:55;;;;;;;9.32;3.13;;;;;;;10.90;80.63;97034.13;4999666;28;24537;-79
2021/09/30 08:50:21;;;;;;;7.78;2.30;;;;;;;10.70;84.21;97044.50;5000593;28;24425;-79
2021/09/30 08:52:48;;;;;;;3.33;1.53;;;;;;;10.69;83.60;97040.25;5001145;28;24425;-78
2021/09/30 08:55:14;;;;;;;6.80;1.73;;;;;;;11.02;81.94;97031.91;5010340;28;24428;-79
2021/09/30 08:57:45;;;;;;;4.65;1.67;;;;;;;11.15;79.90;97044.22;5010697;28;24405;-79
2021/09/30 09:00:13;;;;;;;4.60;1.00;;;;;;;11.11;78.87;97047.03;5006495;28;24962;-80
2021/09/30 09:02:41;;;;;;;3.22;0.80;;;;;;;11.46;78.55;97044.59;4994550;28;24425;-80
2021/09/30 09:05:10;;;;;;;2.40;1.00;;;;;;;11.80;71.76;97039.53;4994265;28;24475;-80
2021/09/30 09:07:37;;;;;;;3.50;1.15;;;;;;;12.07;70.00;97028.75;4994429;28;24543;-79
2021/09/30 09:10:08;;;;;;;3.85;1.00;;;;;;;11.84;67.92;97032.47;4992660;28;24458;-78
2021/09/30 09:12:35;;;;;;;5.70;1.00;;;;;;;11.84;67.75;97024.69;4993142;28;24429;-78
2021/09/30 09:15:03;;;;;;;4.15;0.80;;;;;;;11.79;67.10;97030.06;4993202;28;24429;-78
2021/09/30 09:17:29;;;;;;;2.67;0.90;;;;;;;11.72;64.44;97031.28;4992161;28;24958;-77
2021/09/30 09:19:59;;;;;;;3.15;1.10;;;;;;;12.13;66.95;97038.88;4991773;28;24958;-77
2021/09/30 09:22:31;;;;;;;3.83;1.13;;;;;;;12.68;64.47;97037.84;4991942;28;25105;-77
2021/09/30 09:25:04;;;;;;;2.00;0.80;;;;;;;13.34;63.04;97024.03;4991833;28;24786;-78
2021/09/30 09:27:48;;;;;;;3.53;0.80;;;;;;;13.52;60.00;97030.84;4993477;28;24453;-78
2021/09/30 09:30:29;;;;;;;2.38;0.73;;;;;;;12.86;61.29;97018.72;4994661;28;24871;-78
2021/09/30 09:33:08;;;;;;;4.85;1.00;;;;;;;12.45;61.08;97010.44;4994198;28;24432;-78
2021/09/30 09:35:51;;;;;;;8.32;1.23;;;;;;;12.91;63.61;97015.91;4993681;28;24425;-78
2021/09/30 09:38:20;;;;;;;3.42;0.80;;;;;;;12.59;60.73;97015.78;4992584;28;24519;-77
2021/09/30 09:40:47;;;;;;;3.67;1.00;;;;;;;12.85;62.06;97017.03;4992113;28;24532;-77
2021/09/30 09:43:33;;;;;;;2.60;0.93;;;;;;;13.46;64.10;97013.81;4999302;28;24992;-78
2021/09/30 09:46:01;;;;;;;2.78;1.08;;;;;;;13.75;59.81;97014.78;4987332;28;24513;-77
2021/09/30 09:48:31;;;;;;;7.68;1.05;;;;;;;13.32;60.43;97011.97;4993562;28;24854;-77
2021/09/30 09:50:58;;;;;;;2.53;0.80;;;;;;;13.48;60.03;97013.72;4987124;28;24432;-77
2021/09/30 09:53:28;;;;;;;5.22;1.27;;;;;;;13.50;60.70;97014.50;4991345;28;24854;-77
2021/09/30 09:56:08;;;;;;;9.30;0.98;;;;;;;13.01;59.14;97010.09;4991270;28;24623;-77
2021/09/30 09:58:46;;;;;;;2.97;1.00;;;;;;;12.88;60.01;97003.03;4991592;28;24536;-77
2021/09/30 10:01:13;;;;;;;3.78;1.00;;;;;;;12.91;61.66;97002.91;4994749;28;24425;-77
2021/09/30 10:03:50;;;;;;;2.53;0.80;;;;;;;13.36;60.05;96991.81;4993988;28;24433;-77
2021/09/30 10:06:17;;;;;;;2.53;0.80;;;;;;;13.76;60.21;97003.47;4998219;28;24798;-78
2021/09/30 10:08:45;;;;;;;3.80;1.00;;;;;;;13.98;60.16;96989.25;4993769;28;24451;-79
2021/09/30 10:11:12;;;;;;;3.20;0.90;;;;;;;13.81;60.33;96990.19;4993904;28;24429;-80
2021/09/30 10:13:39;;;;;;;3.57;1.00;;;;;;;13.65;58.95;96990.22;4993949;28;24458;-81
2021/09/30 10:16:06;;;;;;;2.60;1.00;;;;;;;13.91;58.51;96986.16;4996770;28;24443;-81
2021/09/30 10:18:32;;;;;;;2.25;0.70;;;;;;;14.17;58.63;96979.44;4993433;28;24478;-81
2021/09/30 10:20:59;;;;;;;3.42;0.82;;;;;;;13.75;57.16;96978.34;4994412;28;24420;-82
2021/09/30 10:23:28;;;;;;;2.17;0.82;;;;;;;13.76;57.94;96981.81;4995304;28;24436;-82
2021/09/30 10:25:59;;;;;;;5.75;0.80;;;;;;;13.45;53.63;96982.66;4994042;28;24417;-78
2021/09/30 10:28:27;;;;;;;2.05;0.80;;;;;;;13.90;56.68;96978.41;4997195;28;24449;-78
2021/09/30 10:30:54;;;;;;;2.33;0.75;;;;;;;13.99;56.65;96973.53;4993440;28;24476;-79
2021/09/30 10:33:23;;;;;;;4.90;0.82;;;;;;;14.20;53.21;96979.28;4992267;28;24416;-78
2021/09/30 10:35:52;;;;;;;2.47;0.80;;;;;;;13.88;53.67;96969.88;4992090;28;24536;-79
2021/09/30 10:38:23;;;;;;;1.15;0.70;;;;;;;13.71;54.64;96976.00;4992493;28;25023;-78
2021/09/30 10:41:09;;;;;;;2.30;0.80;;;;;;;13.42;56.61;96970.69;4992154;28;24799;-79
2021/09/30 10:43:41;;;;;;;7.68;0.90;;;;;;;13.19;57.29;96965.84;4992194;28;24467;-79
2021/09/30 10:46:08;;;;;;;2.72;0.88;;;;;;;13.65;59.98;96969.41;4992752;28;24433;-78
2021/09/30 10:48:40;;;;;;;3.05;1.10;;;;;;;14.43;59.48;96964.06;4992496;28;24445;-79
2021/09/30 10:51:11;;;;;;;3.22;0.80;;;;;;;14.61;55.85;96967.34;4992883;28;25257;-78
2021/09/30 10:53:58;;;;;;;3.88;0.80;;;;;;;13.88;55.64;96962.06;4992275;28;25093;-79
2021/09/30 10:56:40;;;;;;;3.03;0.90;;;;;;;13.63;55.70;96966.03;4991613;28;24428;-79
2021/09/30 10:59:41;;;;;;;4.30;0.77;;;;;;;13.62;55.80;96960.91;4992698;28;24529;-79
2021/09/30 11:02:12;;;;;;;2.35;0.70;;;;;;;13.78;59.37;96949.53;4992047;28;24463;-77
2021/09/30 11:05:04;;;;;;;3.17;0.90;;;;;;;13.37;58.14;96954.47;5001326;28;24421;-83
2021/09/30 11:07:31;;;;;;;2.17;1.00;;;;;;;12.95;58.30;96961.03;5003924;28;24437;-82
2021/09/30 11:10:19;;;;;;;4.03;0.75;;;;;;;12.99;59.24;96954.75;5003455;28;24436;-83
2021/09/30 11:13:19;;;;;;;2.47;0.70;;;;;;;13.31;60.64;96963.47;5003628;28;24515;-83
2021/09/30 11:16:02;;;;;;;2.25;0.85;;;;;;;13.70;61.37;96950.91;5003228;28;24429;-83
2021/09/30 11:18:47;;;;;;;2.85;1.00;;;;;;;13.95;60.41;96952.97;5004249;28;24429;-82
2021/09/30 11:21:45;;;;;;;2.10;0.80;;;;;;;14.13;57.37;96943.25;5001642;28;24480;-83
2021/09/30 11:24:32;;;;;;;2.60;0.88;;;;;;;13.87;57.37;96947.31;4994195;28;24453;-82
2021/09/30 11:27:22;;;;;;;4.30;1.08;;;;;;;13.72;57.85;96942.09;5156768;22;24465;-81
2021/09/30 11:29:50;;;;;;;3.47;1.10;;;;;;;13.75;57.51;96939.28;5022840;28;25020;-81
2021/09/30 11:32:27;;;;;;;3.80;0.80;;;;;;;14.10;62.90;96936.44;5027483;28;24991;-82
2021/09/30 11:35:02;;;;;;;1.83;0.75;;;;;;;14.25;57.03;96932.94;5028635;28;24425;-81
2021/09/30 11:37:40;;;;;;;4.07;1.00;;;;;;;13.87;55.92;96923.88;5018263;28;24524;-80
2021/09/30 11:40:12;;;;;;;2.65;0.90;;;;;;;13.92;58.54;96917.50;5017524;28;24435;-81
2021/09/30 11:42:40;;;;;;;2.37;0.80;;;;;;;14.27;56.28;96912.81;5006703;28;24539;-80
2021/09/30 11:45:12;;;;;;;2.05;0.80;;;;;;;14.42;55.84;96918.88;4998085;28;24432;-80
2021/09/30 11:47:40;;;;;;;1.88;0.90;;;;;;;14.37;59.57;96920.94;4998244;28;24501;-80
2021/09/30 11:50:09;;;;;;;2.17;0.90;;;;;;;14.35;56.41;96908.91;5012026;28;24464;-80
2021/09/30 11:52:35;;;;;;;4.28;1.05;;;;;;;13.82;57.66;96908.53;5017339;28;24425;-80
2021/09/30 11:55:16;;;;;;;5.10;1.20;;;;;;;13.89;56.35;96906.44;5017654;28;24972;-80
2021/09/30 11:57:56;;;;;;;1.25;0.60;;;;;;;13.98;56.76;96890.28;5044313;22;24479;-78
2021/09/30 12:00:25;;;;;;;3.20;0.90;;;;;;;13.72;54.65;96879.63;5034749;28;24431;-78
2021/09/30 12:02:57;;;;;;;1.67;0.60;;;;;;;14.01;58.04;96884.88;5035167;28;24439;-77
2021/09/30 12:05:28;;;;;;;4.10;1.10;;;;;;;14.65;58.08;96880.22;5034488;28;24416;-78
2021/09/30 12:07:54;;;;;;;2.75;0.88;;;;;;;14.54;57.30;96886.09;5030201;28;24455;-78
2021/09/30 12:10:21;;;;;;;3.03;0.75;;;;;;;14.56;57.64;96886.81;5015363;28;24482;-78
2021/09/30 12:12:47;;;;;;;1.70;0.70;;;;;;;14.55;55.52;96886.91;5014736;28;24444;-77
2021/09/30 12:15:15;;;;;;;3.25;0.80;;;;;;;14.22;57.12;96878.41;5026624;28;24423;-78
2021/09/30 12:17:43;;;;;;;2.90;0.80;;;;;;;14.36;54.84;96887.16;5034551;28;24439;-78
2021/09/30 12:20:12;;;;;;;6.22;0.88;;;;;;;14.27;55.97;96881.56;5034732;28;24428;-78
2021/09/30 12:22:41;;;;;;;1.98;0.90;;;;;;;14.19;53.81;96880.34;5034682;28;24497;-78
2021/09/30 12:25:11;;;;;;;2.35;0.82;;;;;;;14.10;55.00;96876.53;5034067;28;24568;-78
2021/09/30 12:27:40;;;;;;;1.67;0.57;;;;;;;14.04;55.38;96864.69;5034290;28;25055;-78
2021/09/30 12:30:09;;;;;;;2.20;0.75;;;;;;;13.80;54.68;96858.34;5035136;28;24467;-78
2021/09/30 12:32:38;;;;;;;2.47;0.80;;;;;;;13.96;55.33;96860.88;5034981;28;24458;-78
2021/09/30 12:35:10;;;;;;;4.60;0.83;;;;;;;14.20;58.76;96856.81;5034985;28;25095;-78
2021/09/30 12:37:38;;;;;;;2.22;0.90;;;;;;;14.55;54.32;96850.44;5034951;28;24416;-75
2021/09/30 12:40:08;;;;;;;9.98;1.55;;;;;;;14.34;54.86;96848.16;5034294;28;24462;-78
2021/09/30 12:42:35;;;;;;;2.50;0.90;;;;;;;14.24;56.50;96850.50;5035144;28;24431;-78
2021/09/30 12:45:02;;;;;;;3.53;0.77;;;;;;;13.95;54.98;96841.81;5034746;28;24423;-78
2021/09/30 12:47:38;;;;;;;1.92;0.70;;;;;;;14.13;55.35;96841.66;5034458;28;24431;-78
2021/09/30 12:50:10;;;;;;;2.00;0.65;;;;;;;13.99;52.70;96843.28;5025933;28;24449;-78
2021/09/30 12:52:36;;;;;;;4.10;0.80;;;;;;;14.25;53.38;96840.91;5023095;28;24431;-78
2021/09/30 12:55:25;;;;;;;1.25;0.50;;;;;;;13.95;50.94;96840.97;5024194;28;24485;-79
2021/09/30 12:57:51;;;;;;;3.97;0.90;;;;;;;14.11;52.49;96836.50;5024142;28;25012;-75
2021/09/30 13:00:19;;;;;;;3.50;0.95;;;;;;;14.67;55.34;96834.00;5025352;28;25008;-78
2021/09/30 13:02:48;;;;;;;2.15;0.77;;;;;;;14.93;55.06;96832.38;5022788;28;24459;-78
2021/09/30 13:05:17;;;;;;;2.10;0.80;;;;;;;14.65;52.45;96820.25;5023398;28;24435;-79
2021/09/30 13:07:46;;;;;;;2.53;0.50;;;;;;;14.48;51.76;96822.09;5023541;28;24436;-78
2021/09/30 13:10:13;;;;;;;2.23;1.00;;;;;;;14.37;51.42;96815.88;5024834;28;24451;-78
2021/09/30 13:12:57;;;;;;;6.20;0.85;;;;;;;14.34;51.27;96813.44;5019512;28;24443;-78
2021/09/30 13:15:33;;;;;;;2.10;0.80;;;;;;;14.40;54.05;96813.06;5021832;28;25081;-78
2021/09/30 13:18:01;;;;;;;3.25;0.90;;;;;;;14.24;53.51;96813.19;5022746;28;24429;-78
2021/09/30 13:20:30;;;;;;;3.22;1.10;;;;;;;14.15;51.76;96811.13;5023097;28;24428;-79
2021/09/30 13:22:56;;;;;;;3.38;0.88;;;;;;;14.40;52.51;96815.69;5022605;28;24436;-78
2021/09/30 13:25:23;;;;;;;1.73;0.65;;;;;;;14.64;53.85;96814.19;5022014;28;24455;-79
2021/09/30 13:27:51;;;;;;;1.77;0.52;;;;;;;14.41;54.79;96810.34;5023236;28;24428;-78
2021/09/30 13:30:21;;;;;;;4.20;0.70;;;;;;;14.27;54.18;96813.81;5023952;28;24814;-78
2021/09/30 13:32:48;;;;;;;2.15;0.75;;;;;;;13.96;56.79;96801.81;5025697;28;24431;-78
2021/09/30 13:35:16;;;;;;;2.00;0.60;;;;;;;14.21;58.93;96802.94;5033569;28;24423;-78
2021/09/30 13:37:45;;;;;;;1.38;0.60;;;;;;;14.15;56.75;96803.31;5031792;28;24768;-78
2021/09/30 13:40:12;;;;;;;8.13;0.80;;;;;;;14.07;58.18;96800.31;5024273;28;24424;-78
2021/09/30 13:42:40;;;;;;;2.17;0.80;;;;;;;14.09;58.56;96798.44;5024131;28;24432;-78
2021/09/30 13:45:10;;;;;;;1.15;0.60;;;;;;;14.57;60.60;96802.44;5023129;28;24483;-79
2021/09/30 13:47:36;;;;;;;1.98;0.80;;;;;;;14.90;56.70;96786.44;5022184;28;24954;-78
2021/09/30 13:50:04;;;;;;;2.03;0.70;;;;;;;14.88;58.08;96785.72;5023832;28;24460;-78
2021/09/30 13:52:31;;;;;;;2.10;0.60;;;;;;;14.94;63.30;96784.47;5023658;28;24441;-78
2021/09/30 13:54:59;;;;;;;4.10;0.80;;;;;;;15.02;58.52;96784.84;5021565;28;24825;-78
2021/09/30 13:57:25;;;;;;;3.35;1.00;;;;;;;14.33;55.06;96783.09;5022937;28;25247;-78
2021/09/30 13:59:52;;;;;;;5.88;1.10;;;;;;;14.22;56.14;96779.38;5024112;28;24428;-78
2021/09/30 14:02:18;;;;;;;2.85;0.90;;;;;;;14.25;55.32;96773.16;5022150;28;24494;-78
2021/09/30 14:04:45;;;;;;;1.60;0.65;;;;;;;14.17;55.77;96776.22;5023205;28;24466;-78
2021/09/30 14:07:11;;;;;;;2.03;0.77;;;;;;;14.11;55.96;96773.16;5023126;28;24433;-78
2021/09/30 14:09:38;;;;;;;7.95;0.70;;;;;;;14.43;57.16;96773.78;5021593;28;24456;-78